Midelt, Morocco
Current Conditions -  °F | °C
As of 5:00 AM on Friday 31 Oct 2014 (Local Time) from GMFK Reporting Station
Clear Clear  
Wind Chill: 55°   Ceiling: Unl
Heat Index: 55°   Visibility: 6mi
Dew Point: 39°   Wind: 2mph
Humidity: 54%   Direction: 60°ENE
Pressure: 30.24"   Gusts: NA
Location:  32.7°N, 4.74°W
Report Text: GMFK 310400Z 06002KT CAVOK 13/04 Q1024 NOSIG
Loading
Personal Weather Stations






























Interactive Weather Map
Tropical Storm Tracking
New forecast layout! Learn more

10-Day Weather Forecast

Advertisements
Track Severe Weather on mobile